createdAt,value
2019-06-26T00:01:59.608Z,10.28
2019-06-26T00:04:27.703Z,9.40
2019-06-26T00:06:55.827Z,10.03
2019-06-26T00:09:24.097Z,11.22
2019-06-26T00:11:52.205Z,13.03
2019-06-26T00:14:20.304Z,10.40
2019-06-26T00:16:48.413Z,9.80
2019-06-26T00:19:16.516Z,10.25
2019-06-26T00:21:44.631Z,12.73
2019-06-26T00:24:12.732Z,10.80
2019-06-26T00:26:40.848Z,12.93
2019-06-26T00:29:08.945Z,13.43
2019-06-26T00:31:37.061Z,10.75
2019-06-26T00:34:05.225Z,10.72
2019-06-26T00:36:33.553Z,11.30
2019-06-26T00:39:01.644Z,12.33
2019-06-26T00:41:29.755Z,12.78
2019-06-26T00:43:57.858Z,10.30
2019-06-26T00:46:25.958Z,12.50
2019-06-26T00:48:54.060Z,10.85
2019-06-26T00:51:22.165Z,12.65
2019-06-26T00:53:50.269Z,11.18
2019-06-26T00:56:18.385Z,11.20
2019-06-26T00:58:46.476Z,10.82
2019-06-26T01:01:14.686Z,11.28
2019-06-26T01:03:42.792Z,13.48
2019-06-26T01:06:12.538Z,11.30
2019-06-26T01:08:40.627Z,12.55
2019-06-26T01:11:08.742Z,11.68
2019-06-26T01:13:36.908Z,11.48
2019-06-26T01:16:05.015Z,12.58
2019-06-26T01:18:33.115Z,13.45
2019-06-26T01:21:01.219Z,17.27
2019-06-26T01:23:29.404Z,11.25
2019-06-26T01:25:57.498Z,11.08
2019-06-26T01:28:25.599Z,19.40
2019-06-26T01:30:53.701Z,16.67
2019-06-26T01:33:21.802Z,12.80
2019-06-26T01:35:49.951Z,12.40
2019-06-26T01:38:18.160Z,13.10
2019-06-26T01:40:46.264Z,13.98
2019-06-26T01:43:14.384Z,12.63
2019-06-26T01:45:42.488Z,12.18
2019-06-26T01:48:10.604Z,11.28
2019-06-26T01:50:38.715Z,12.80
2019-06-26T01:53:06.824Z,14.78
2019-06-26T01:55:34.943Z,12.63
2019-06-26T01:58:03.054Z,12.88
2019-06-26T02:00:31.153Z,12.75
2019-06-26T02:02:59.267Z,13.78
2019-06-26T02:05:27.543Z,14.80
2019-06-26T02:07:55.650Z,18.52
2019-06-26T02:10:23.752Z,13.65
2019-06-26T02:12:52.011Z,14.83
2019-06-26T02:15:20.192Z,13.68
2019-06-26T02:17:48.293Z,13.55
2019-06-26T02:20:16.400Z,16.40
2019-06-26T02:22:44.512Z,12.85
2019-06-26T02:25:12.792Z,16.40
2019-06-26T02:27:40.904Z,17.75
2019-06-26T02:30:09.190Z,15.35
2019-06-26T02:32:56.628Z,13.75
2019-06-26T02:35:24.747Z,14.73
2019-06-26T02:37:52.850Z,18.27
2019-06-26T02:40:21.029Z,17.60
2019-06-26T02:42:49.177Z,14.38
2019-06-26T02:45:17.285Z,15.03
2019-06-26T02:47:45.390Z,15.35
2019-06-26T02:50:13.660Z,16.62
2019-06-26T02:52:41.769Z,17.40
2019-06-26T02:55:10.055Z,15.93
2019-06-26T02:57:38.184Z,16.55
2019-06-26T03:00:06.571Z,17.02
2019-06-26T03:02:34.729Z,16.42
2019-06-26T03:05:03.303Z,19.02
2019-06-26T03:07:31.459Z,17.50
2019-06-26T03:09:59.735Z,16.48
2019-06-26T03:12:27.831Z,16.70
2019-06-26T03:15:08.254Z,17.30
2019-06-26T03:17:25.751Z,16.05
2019-06-26T03:19:53.859Z,21.15
2019-06-26T03:22:21.963Z,23.62
2019-06-26T03:24:50.234Z,16.37
2019-06-26T03:27:18.329Z,16.00
2019-06-26T03:29:46.811Z,16.70
2019-06-26T03:32:15.021Z,20.15
2019-06-26T03:34:43.194Z,18.20
2019-06-26T03:37:11.321Z,17.40
2019-06-26T03:39:39.421Z,17.50
2019-06-26T03:42:07.512Z,19.57
2019-06-26T03:44:35.709Z,17.15
2019-06-26T03:47:03.873Z,17.48
2019-06-26T03:49:31.972Z,18.15
2019-06-26T03:52:00.071Z,14.58
2019-06-26T03:54:28.418Z,16.32
2019-06-26T03:56:56.522Z,14.93
2019-06-26T03:59:24.715Z,17.00
2019-06-26T04:01:52.927Z,14.58
2019-06-26T04:04:21.035Z,15.38
2019-06-26T04:06:49.214Z,17.77
2019-06-26T04:09:17.311Z,18.98
2019-06-26T04:11:45.423Z,14.53
2019-06-26T04:14:13.512Z,16.95
2019-06-26T04:16:43.250Z,15.45
2019-06-26T04:19:11.347Z,18.27
2019-06-26T04:21:39.463Z,15.13
2019-06-26T04:24:07.568Z,15.25
2019-06-26T04:26:35.663Z,15.65
2019-06-26T04:29:03.840Z,18.37
2019-06-26T04:31:51.280Z,19.23
2019-06-26T04:34:19.387Z,16.57
2019-06-26T04:36:47.502Z,18.35
2019-06-26T04:39:15.607Z,17.23
2019-06-26T04:41:43.716Z,20.00
2019-06-26T04:44:11.824Z,23.83
2019-06-26T04:46:39.964Z,22.15
2019-06-26T04:49:08.067Z,25.05
2019-06-26T04:51:36.168Z,22.05
2019-06-26T04:54:04.267Z,28.32
2019-06-26T04:56:32.371Z,24.65
2019-06-26T04:59:00.525Z,28.60
2019-06-26T05:01:28.626Z,23.10
2019-06-26T05:03:56.729Z,25.65
2019-06-26T05:06:24.832Z,24.07
2019-06-26T05:08:52.942Z,29.20
2019-06-26T05:11:21.048Z,27.02
2019-06-26T05:13:49.145Z,26.23
2019-06-26T05:16:20.256Z,25.00
2019-06-26T05:18:47.080Z,23.05
2019-06-26T05:21:15.184Z,25.75
2019-06-26T05:23:43.295Z,23.62
2019-06-26T05:26:11.393Z,23.52
2019-06-26T05:28:39.507Z,23.80
2019-06-26T05:31:07.954Z,29.12
2019-06-26T05:33:36.416Z,28.05
2019-06-26T05:36:04.524Z,27.62
2019-06-26T05:38:32.961Z,26.80
2019-06-26T05:41:01.405Z,27.37
2019-06-26T05:43:29.866Z,29.07
2019-06-26T05:45:58.040Z,23.98
2019-06-26T05:48:26.498Z,21.93
2019-06-26T05:50:54.607Z,23.57
2019-06-26T05:53:22.710Z,25.82
2019-06-26T05:55:50.811Z,24.72
2019-06-26T05:58:19.320Z,25.88
2019-06-26T06:00:48.055Z,21.75
2019-06-26T06:03:16.205Z,22.20
2019-06-26T06:05:44.645Z,22.22
2019-06-26T06:08:13.084Z,24.15
2019-06-26T06:10:42.263Z,21.90
2019-06-26T06:13:10.701Z,21.90
2019-06-26T06:15:39.168Z,21.20
2019-06-26T06:18:07.324Z,20.00
2019-06-26T06:20:38.279Z,19.60
2019-06-26T06:23:07.191Z,20.02
2019-06-26T06:25:54.966Z,20.30
2019-06-26T06:28:23.400Z,22.00
2019-06-26T06:30:51.842Z,21.15
2019-06-26T06:33:20.277Z,20.35
2019-06-26T06:35:48.712Z,19.60
2019-06-26T06:38:17.152Z,20.10
2019-06-26T06:40:45.635Z,18.40
2019-06-26T06:43:14.675Z,18.60
2019-06-26T06:45:43.280Z,17.75
2019-06-26T06:48:11.721Z,17.75
2019-06-26T06:50:40.243Z,21.93
2019-06-26T06:53:08.675Z,18.17
2019-06-26T06:55:37.108Z,16.57
2019-06-26T06:58:05.532Z,16.70
2019-06-26T07:00:33.966Z,16.05
2019-06-26T07:03:02.477Z,18.37
2019-06-26T07:05:30.912Z,14.75
2019-06-26T07:07:59.362Z,16.52
2019-06-26T07:10:27.850Z,14.13
2019-06-26T07:12:56.327Z,14.45
2019-06-26T07:15:24.941Z,23.00
2019-06-26T07:17:54.013Z,17.27
2019-06-26T07:20:22.585Z,21.33
2019-06-26T07:22:51.024Z,14.70
2019-06-26T07:25:19.462Z,15.58
2019-06-26T07:27:47.901Z,14.25
2019-06-26T07:30:16.981Z,14.23
2019-06-26T07:32:45.419Z,18.75
2019-06-26T07:35:13.852Z,25.32
2019-06-26T07:37:42.292Z,14.40
2019-06-26T07:40:11.179Z,14.98
2019-06-26T07:42:39.609Z,14.47
2019-06-26T07:45:08.377Z,16.90
2019-06-26T07:47:43.184Z,15.72
2019-06-26T07:50:08.362Z,25.95
2019-06-26T07:52:36.823Z,16.42
2019-06-26T07:55:07.163Z,14.68
2019-06-26T08:00:03.549Z,14.33
2019-06-26T08:02:32.076Z,13.13
2019-06-26T08:05:00.513Z,14.65
2019-06-26T08:07:28.965Z,16.62
2019-06-26T08:09:57.405Z,12.30
2019-06-26T08:12:25.862Z,12.90
2019-06-26T08:14:54.297Z,13.88
2019-06-26T08:17:22.744Z,12.47
2019-06-26T08:19:51.261Z,11.55
2019-06-26T08:22:19.708Z,11.80
2019-06-26T08:24:48.140Z,11.93
2019-06-26T08:27:16.588Z,12.53
2019-06-26T08:29:45.024Z,13.58
2019-06-26T08:32:13.474Z,14.28
2019-06-26T08:34:41.925Z,11.97
2019-06-26T08:37:10.354Z,11.08
2019-06-26T08:39:38.784Z,11.03
2019-06-26T08:42:07.214Z,9.08
2019-06-26T08:44:35.635Z,10.68
2019-06-26T08:47:04.069Z,10.53
2019-06-26T08:49:32.590Z,11.40
2019-06-26T08:52:01.296Z,11.73
2019-06-26T08:54:29.776Z,13.20
2019-06-26T08:56:58.209Z,14.58
2019-06-26T08:59:26.639Z,10.38
2019-06-26T09:01:55.079Z,13.05
2019-06-26T09:04:23.584Z,16.65
2019-06-26T09:06:52.032Z,11.45
2019-06-26T09:09:20.447Z,10.85
2019-06-26T09:11:48.877Z,10.55
2019-06-26T09:14:17.322Z,10.35
2019-06-26T09:17:05.082Z,12.68
2019-06-26T09:19:33.519Z,10.38
2019-06-26T09:22:01.945Z,11.40
2019-06-26T09:24:30.392Z,10.43
2019-06-26T09:26:58.841Z,11.35
2019-06-26T09:29:27.358Z,10.72
2019-06-26T09:31:55.773Z,9.65
2019-06-26T09:34:24.220Z,10.13
2019-06-26T09:36:52.652Z,8.80
2019-06-26T09:39:21.096Z,8.38
2019-06-26T09:41:49.525Z,8.75
2019-06-26T09:44:17.966Z,13.40
2019-06-26T09:46:46.402Z,10.53
2019-06-26T09:49:14.838Z,9.78
2019-06-26T09:51:43.268Z,9.63
2019-06-26T09:54:31.045Z,9.38
2019-06-26T09:56:59.477Z,11.22
2019-06-26T09:59:27.912Z,9.25
2019-06-26T10:01:56.340Z,12.25
2019-06-26T10:04:24.788Z,14.53
2019-06-26T10:06:53.319Z,14.20
2019-06-26T10:09:21.816Z,14.18
2019-06-26T10:11:50.254Z,8.58
2019-06-26T10:14:18.691Z,15.43
2019-06-26T10:16:47.116Z,15.80
2019-06-26T10:19:15.560Z,12.23
2019-06-26T10:21:43.995Z,14.35
2019-06-26T10:24:12.424Z,9.38
2019-06-26T10:26:40.852Z,15.28
2019-06-26T10:29:09.293Z,12.58
2019-06-26T10:31:37.817Z,10.68
2019-06-26T10:34:09.848Z,12.63
2019-06-26T10:36:55.752Z,11.65
2019-06-26T10:39:24.184Z,12.25
2019-06-26T10:41:55.011Z,12.95
2019-06-26T10:44:22.785Z,12.50
2019-06-26T10:46:51.290Z,12.13
2019-06-26T10:49:26.949Z,9.85
2019-06-26T10:51:49.874Z,13.05
2019-06-26T10:54:18.321Z,8.75
2019-06-26T10:56:46.749Z,12.30
2019-06-26T10:59:15.185Z,9.68
2019-06-26T11:01:43.619Z,8.85
2019-06-26T11:04:12.102Z,10.23
2019-06-26T11:06:40.568Z,16.05
2019-06-26T11:09:09.063Z,16.90
2019-06-26T11:11:37.556Z,12.93
2019-06-26T11:14:06.144Z,9.95
2019-06-26T11:16:34.578Z,11.73
2019-06-26T11:19:03.181Z,13.60
2019-06-26T11:21:31.608Z,14.13
2019-06-26T11:24:00.042Z,13.50
2019-06-26T11:26:28.485Z,12.65
2019-06-26T11:28:56.921Z,14.33
2019-06-26T11:31:25.407Z,13.15
2019-06-26T11:33:53.860Z,9.50
2019-06-26T11:36:22.302Z,12.43
2019-06-26T11:38:50.807Z,13.40
2019-06-26T11:41:19.247Z,13.72
2019-06-26T11:43:47.680Z,9.10
2019-06-26T11:46:16.121Z,10.78
2019-06-26T11:48:44.552Z,8.88
2019-06-26T11:51:12.982Z,20.65
2019-06-26T11:53:41.426Z,19.40
2019-06-26T11:56:10.031Z,8.18
2019-06-26T11:58:38.476Z,9.35
2019-06-26T12:01:06.906Z,13.22
2019-06-26T12:03:35.333Z,10.20
2019-06-26T12:06:15.680Z,9.78
2019-06-26T12:08:33.927Z,8.43
2019-06-26T12:11:02.566Z,11.12
2019-06-26T12:13:33.372Z,9.33
2019-06-26T12:16:01.230Z,8.33
2019-06-26T12:18:29.665Z,8.38
2019-06-26T12:20:58.282Z,10.63
2019-06-26T12:23:26.882Z,11.83
2019-06-26T12:25:55.333Z,13.28
2019-06-26T12:28:23.844Z,12.20
2019-06-26T12:30:52.281Z,12.58
2019-06-26T12:33:20.720Z,15.80
2019-06-26T12:35:49.168Z,20.72
2019-06-26T12:38:17.597Z,9.78
2019-06-26T12:40:46.034Z,9.45
2019-06-26T12:43:14.472Z,11.73
2019-06-26T12:45:42.926Z,10.35
2019-06-26T12:48:11.358Z,19.12
2019-06-26T12:50:39.805Z,12.00
2019-06-26T12:53:08.243Z,17.55
2019-06-26T12:55:36.660Z,9.50
2019-06-26T12:58:13.143Z,15.93
2019-06-26T13:00:35.443Z,9.33
2019-06-26T13:03:04.608Z,14.90
2019-06-26T13:05:33.040Z,13.40
2019-06-26T13:08:01.480Z,15.18
2019-06-26T13:10:29.908Z,12.98
2019-06-26T13:12:58.337Z,9.28
2019-06-26T13:15:26.793Z,16.95
2019-06-26T13:17:55.224Z,18.02
2019-06-26T13:20:23.689Z,15.03
2019-06-26T13:22:52.164Z,14.45
2019-06-26T13:25:20.596Z,18.90
2019-06-26T13:27:49.078Z,17.42
2019-06-26T13:30:20.582Z,16.10
2019-06-26T13:32:49.013Z,9.55
2019-06-26T13:35:17.454Z,14.75
2019-06-26T13:37:45.895Z,13.22
2019-06-26T13:40:14.539Z,13.93
2019-06-26T13:42:42.969Z,15.25
2019-06-26T13:45:11.850Z,13.55
2019-06-26T13:47:40.289Z,21.85
2019-06-26T13:50:09.762Z,13.55
2019-06-26T13:52:38.197Z,13.28
2019-06-26T13:55:06.991Z,16.07
2019-06-26T13:57:35.492Z,17.60
2019-06-26T14:00:05.672Z,15.48
2019-06-26T14:02:34.192Z,11.43
2019-06-26T14:05:02.617Z,12.73
2019-06-26T14:07:31.057Z,22.17
2019-06-26T14:09:59.485Z,15.18
2019-06-26T14:12:27.929Z,11.40
2019-06-26T14:14:58.046Z,17.57
2019-06-26T14:17:26.524Z,13.60
2019-06-26T14:19:54.954Z,16.02
2019-06-26T14:22:23.399Z,13.32
2019-06-26T14:24:54.139Z,14.18
2019-06-26T14:27:21.980Z,12.65
2019-06-26T14:29:50.416Z,12.07
2019-06-26T14:32:18.881Z,17.40
2019-06-26T14:34:47.368Z,15.28
2019-06-26T14:37:15.813Z,15.63
2019-06-26T14:39:44.248Z,10.50
2019-06-26T14:42:12.696Z,12.90
2019-06-26T14:44:41.131Z,11.70
2019-06-26T14:47:09.564Z,18.77
2019-06-26T14:49:37.994Z,16.23
2019-06-26T14:52:06.426Z,12.10
2019-06-26T14:54:34.861Z,11.55
2019-06-26T14:57:03.297Z,14.78
2019-06-26T14:59:31.733Z,24.90
2019-06-26T15:02:00.165Z,19.85
2019-06-26T15:04:28.605Z,12.63
2019-06-26T15:06:57.032Z,16.87
2019-06-26T15:09:25.473Z,14.53
2019-06-26T15:11:53.908Z,16.52
2019-06-26T15:14:22.340Z,15.58
2019-06-26T15:16:50.781Z,16.40
2019-06-26T15:19:19.250Z,12.25
2019-06-26T15:21:57.874Z,13.38
2019-06-26T15:24:17.890Z,12.45
2019-06-26T15:26:46.312Z,12.30
2019-06-26T15:29:14.749Z,14.03
2019-06-26T15:31:43.186Z,21.82
2019-06-26T15:34:11.617Z,12.65
2019-06-26T15:36:40.049Z,17.60
2019-06-26T15:39:08.728Z,15.40
2019-06-26T15:41:37.165Z,15.13
2019-06-26T15:44:05.603Z,11.78
2019-06-26T15:46:34.073Z,13.60
2019-06-26T15:49:02.542Z,18.98
2019-06-26T15:51:30.959Z,9.18
2019-06-26T15:54:00.122Z,10.48
2019-06-26T15:56:28.603Z,14.63
2019-06-26T15:58:57.053Z,25.40
2019-06-26T16:01:25.546Z,13.08
2019-06-26T16:03:53.991Z,7.95
2019-06-26T16:06:22.415Z,11.20
2019-06-26T16:08:50.904Z,13.83
2019-06-26T16:11:19.374Z,11.50
2019-06-26T16:13:47.822Z,10.23
2019-06-26T16:16:16.334Z,13.35
2019-06-26T16:18:46.416Z,11.60
2019-06-26T16:23:42.597Z,10.82
2019-06-26T16:26:11.046Z,11.00
2019-06-26T16:28:39.485Z,16.23
2019-06-26T16:31:07.913Z,9.48
2019-06-26T16:33:36.348Z,11.70
2019-06-26T16:36:04.779Z,12.05
2019-06-26T16:38:33.209Z,9.53
2019-06-26T16:41:01.646Z,13.35
2019-06-26T16:43:30.076Z,15.45
2019-06-26T16:45:58.509Z,20.50
2019-06-26T16:48:26.949Z,13.70
2019-06-26T16:50:55.381Z,8.18
2019-06-26T16:53:23.812Z,11.15
2019-06-26T16:55:52.241Z,9.80
2019-06-26T16:58:20.666Z,9.25
2019-06-26T17:00:49.105Z,15.85
2019-06-26T17:03:17.537Z,9.45
2019-06-26T17:05:45.961Z,11.78
2019-06-26T17:08:14.395Z,13.43
2019-06-26T17:10:42.828Z,11.80
2019-06-26T17:13:11.254Z,8.90
2019-06-26T17:15:39.688Z,9.18
2019-06-26T17:18:08.129Z,9.58
2019-06-26T17:20:36.558Z,8.28
2019-06-26T17:23:06.634Z,8.03
2019-06-26T17:28:02.924Z,8.48
2019-06-26T17:30:31.354Z,6.70
2019-06-26T17:32:59.789Z,7.97
2019-06-26T17:35:28.216Z,8.10
2019-06-26T17:37:56.676Z,11.20
2019-06-26T17:40:25.168Z,7.00
2019-06-26T17:42:53.596Z,6.90
2019-06-26T17:45:22.150Z,6.53
2019-06-26T17:47:50.589Z,7.95
2019-06-26T17:50:19.559Z,12.93
2019-06-26T17:52:48.529Z,7.17
2019-06-26T17:55:17.098Z,7.75
2019-06-26T17:57:47.619Z,11.20
2019-06-26T18:00:16.106Z,7.33
2019-06-26T18:02:44.554Z,7.67
2019-06-26T18:05:13.050Z,7.92
2019-06-26T18:07:41.476Z,6.83
2019-06-26T18:10:10.149Z,9.33
2019-06-26T18:12:38.596Z,14.28
2019-06-26T18:15:08.169Z,6.50
2019-06-26T18:17:37.354Z,8.23
2019-06-26T18:20:07.139Z,13.15
2019-06-26T18:22:35.794Z,7.67
2019-06-26T18:25:06.425Z,6.25
2019-06-26T18:27:34.870Z,11.95
2019-06-26T18:30:05.041Z,8.50
2019-06-26T18:32:33.509Z,12.35
2019-06-26T18:35:01.951Z,11.60
2019-06-26T18:37:30.400Z,12.15
2019-06-26T18:39:58.834Z,10.53
2019-06-26T18:42:27.269Z,7.35
2019-06-26T18:44:55.706Z,8.25
2019-06-26T18:47:24.221Z,15.90
2019-06-26T18:49:52.674Z,7.58
2019-06-26T18:52:21.173Z,7.95
2019-06-26T18:54:49.609Z,7.97
2019-06-26T18:57:18.053Z,16.42
2019-06-26T18:59:46.503Z,6.10
2019-06-26T19:02:14.977Z,8.93
2019-06-26T19:04:43.444Z,13.50
2019-06-26T19:07:11.892Z,14.60
2019-06-26T19:09:40.332Z,7.65
2019-06-26T19:12:08.855Z,13.35
2019-06-26T19:14:37.778Z,12.82
2019-06-26T19:17:06.217Z,7.17
2019-06-26T19:19:34.656Z,8.15
2019-06-26T19:22:03.137Z,11.15
2019-06-26T19:24:31.556Z,9.35
2019-06-26T19:26:59.999Z,12.25
2019-06-26T19:29:28.433Z,6.30
2019-06-26T19:31:56.872Z,10.13
2019-06-26T19:34:25.321Z,14.18
2019-06-26T19:36:53.828Z,8.05
2019-06-26T19:39:22.264Z,8.70
2019-06-26T19:41:50.695Z,8.60
2019-06-26T19:44:19.287Z,10.32
2019-06-26T19:46:47.769Z,13.35
2019-06-26T19:49:16.209Z,12.30
2019-06-26T19:51:44.650Z,10.63
2019-06-26T19:54:26.069Z,7.10
2019-06-26T19:56:43.278Z,7.42
2019-06-26T19:59:11.715Z,8.70
2019-06-26T20:01:40.197Z,9.60
2019-06-26T20:04:08.624Z,9.10
2019-06-26T20:06:37.054Z,6.70
2019-06-26T20:09:07.126Z,7.10
2019-06-26T20:11:35.625Z,7.35
2019-06-26T20:14:04.088Z,10.30
2019-06-26T20:16:32.529Z,14.83
2019-06-26T20:19:00.629Z,10.50
2019-06-26T20:21:29.385Z,18.17
2019-06-26T20:23:57.827Z,14.13
2019-06-26T20:26:26.053Z,8.90
2019-06-26T20:28:54.147Z,13.48
2019-06-26T20:31:22.586Z,14.65
2019-06-26T20:33:50.682Z,12.70
2019-06-26T20:36:18.773Z,8.98
2019-06-26T20:38:46.881Z,9.73
2019-06-26T20:41:14.961Z,8.28
2019-06-26T20:43:43.071Z,23.00
2019-06-26T20:46:15.335Z,8.68
2019-06-26T20:48:41.484Z,12.50
2019-06-26T20:51:09.583Z,9.68
2019-06-26T20:53:38.025Z,7.92
2019-06-26T20:56:06.116Z,9.53
2019-06-26T20:58:34.221Z,9.53
2019-06-26T21:01:02.332Z,10.00
2019-06-26T21:03:30.473Z,11.63
2019-06-26T21:05:58.608Z,9.70
2019-06-26T21:08:29.388Z,14.10
2019-06-26T21:10:56.873Z,8.98
2019-06-26T21:13:24.994Z,9.90
2019-06-26T21:15:53.216Z,17.05
2019-06-26T21:18:21.377Z,9.48
2019-06-26T21:20:49.541Z,9.98
2019-06-26T21:23:19.133Z,11.22
2019-06-26T21:25:47.661Z,13.80
2019-06-26T21:28:15.889Z,14.47
2019-06-26T21:30:43.984Z,7.47
2019-06-26T21:33:12.090Z,10.53
2019-06-26T21:35:40.239Z,12.03
2019-06-26T21:38:08.369Z,12.58
2019-06-26T21:40:36.474Z,10.75
2019-06-26T21:43:04.580Z,7.70
2019-06-26T21:45:32.756Z,12.65
2019-06-26T21:48:00.858Z,7.72
2019-06-26T21:50:29.324Z,6.40
2019-06-26T21:52:57.647Z,12.43
2019-06-26T21:55:34.137Z,6.42
2019-06-26T21:57:55.612Z,14.43
2019-06-26T22:00:24.393Z,10.18
2019-06-26T22:02:52.493Z,7.12
2019-06-26T22:05:20.625Z,11.22
2019-06-26T22:07:48.844Z,9.45
2019-06-26T22:10:17.017Z,15.28
2019-06-26T22:12:45.113Z,10.65
2019-06-26T22:15:14.380Z,11.63
2019-06-26T22:17:42.477Z,12.85
2019-06-26T22:20:12.678Z,11.78
2019-06-26T22:22:40.698Z,11.63
2019-06-26T22:25:08.973Z,10.43
2019-06-26T22:27:37.073Z,12.88
2019-06-26T22:30:06.728Z,16.05
2019-06-26T22:32:34.826Z,15.13
2019-06-26T22:35:03.401Z,9.73
2019-06-26T22:37:31.509Z,11.88
2019-06-26T22:39:59.617Z,10.48
2019-06-26T22:42:27.714Z,12.43
2019-06-26T22:44:55.828Z,10.88
2019-06-26T22:47:23.929Z,14.38
2019-06-26T22:49:52.032Z,17.02
2019-06-26T22:52:20.133Z,10.53
2019-06-26T22:54:48.248Z,15.03
2019-06-26T22:57:16.339Z,11.65
2019-06-26T22:59:44.452Z,13.55
2019-06-26T23:02:12.556Z,10.82
2019-06-26T23:04:40.656Z,13.50
2019-06-26T23:07:08.752Z,12.47
2019-06-26T23:09:36.852Z,13.80
2019-06-26T23:12:04.943Z,8.98
2019-06-26T23:14:33.048Z,13.13
2019-06-26T23:17:01.141Z,11.53
2019-06-26T23:19:29.238Z,11.05
2019-06-26T23:21:57.341Z,11.75
2019-06-26T23:24:25.441Z,8.75
2019-06-26T23:26:53.534Z,11.57
2019-06-26T23:29:40.970Z,21.90
2019-06-26T23:32:09.068Z,15.75
2019-06-26T23:34:37.165Z,12.78
2019-06-26T23:37:05.267Z,16.77
2019-06-26T23:39:33.363Z,17.98
2019-06-26T23:42:01.461Z,15.58
2019-06-26T23:44:29.582Z,18.82
2019-06-26T23:46:57.734Z,12.23
2019-06-26T23:49:25.830Z,18.02
2019-06-26T23:51:53.929Z,13.05
2019-06-26T23:54:22.039Z,9.98
2019-06-26T23:56:50.136Z,14.35
2019-06-26T23:59:18.234Z,11.18
